sensor_id;sensor_type;location;lat;lon;timestamp;P1;durP1;ratioP1;P2;durP2;ratioP2
71183;SDS011;58887;51.980;4.464;2023-09-08T00:00:35;11.04;;;11.04;;
71183;SDS011;58887;51.980;4.464;2023-09-08T00:03:01;10.81;;;10.81;;
71183;SDS011;58887;51.980;4.464;2023-09-08T00:05:27;11.02;;;11.02;;
71183;SDS011;58887;51.980;4.464;2023-09-08T00:07:53;10.80;;;10.80;;
71183;SDS011;58887;51.980;4.464;2023-09-08T00:10:18;10.80;;;10.80;;
71183;SDS011;58887;51.980;4.464;2023-09-08T00:12:44;10.80;;;10.80;;
71183;SDS011;58887;51.980;4.464;2023-09-08T00:15:09;11.39;;;11.39;;
71183;SDS011;58887;51.980;4.464;2023-09-08T00:17:35;10.84;;;10.84;;
71183;SDS011;58887;51.980;4.464;2023-09-08T00:20:01;10.98;;;10.98;;
71183;SDS011;58887;51.980;4.464;2023-09-08T00:22:32;11.46;;;11.46;;
71183;SDS011;58887;51.980;4.464;2023-09-08T00:24:58;11.32;;;11.32;;
71183;SDS011;58887;51.980;4.464;2023-09-08T00:27:23;11.41;;;11.41;;
71183;SDS011;58887;51.980;4.464;2023-09-08T00:29:49;11.29;;;11.29;;
71183;SDS011;58887;51.980;4.464;2023-09-08T00:32:15;11.39;;;11.39;;
71183;SDS011;58887;51.980;4.464;2023-09-08T00:34:41;11.83;;;11.83;;
71183;SDS011;58887;51.980;4.464;2023-09-08T00:37:06;11.17;;;11.17;;
71183;SDS011;58887;51.980;4.464;2023-09-08T00:39:37;11.69;;;11.69;;
71183;SDS011;58887;51.980;4.464;2023-09-08T00:42:03;11.81;;;11.81;;
71183;SDS011;58887;51.980;4.464;2023-09-08T00:44:28;11.65;;;11.65;;
71183;SDS011;58887;51.980;4.464;2023-09-08T00:46:54;11.99;;;11.99;;
71183;SDS011;58887;51.980;4.464;2023-09-08T00:49:20;11.84;;;11.84;;
71183;SDS011;58887;51.980;4.464;2023-09-08T00:51:45;11.35;;;11.35;;
71183;SDS011;58887;51.980;4.464;2023-09-08T00:54:11;11.54;;;11.54;;
71183;SDS011;58887;51.980;4.464;2023-09-08T00:56:37;11.53;;;11.53;;
71183;SDS011;58887;51.980;4.464;2023-09-08T00:59:04;11.33;;;11.33;;
71183;SDS011;58887;51.980;4.464;2023-09-08T01:01:31;11.75;;;11.75;;
71183;SDS011;58887;51.980;4.464;2023-09-08T01:03:57;11.98;;;11.95;;
71183;SDS011;58887;51.980;4.464;2023-09-08T01:06:22;12.16;;;12.16;;
71183;SDS011;58887;51.980;4.464;2023-09-08T01:08:49;11.94;;;11.94;;
71183;SDS011;58887;51.980;4.464;2023-09-08T01:11:17;12.05;;;12.05;;
71183;SDS011;58887;51.980;4.464;2023-09-08T01:13:44;12.01;;;12.01;;
71183;SDS011;58887;51.980;4.464;2023-09-08T01:16:10;12.01;;;12.01;;
71183;SDS011;58887;51.980;4.464;2023-09-08T01:18:35;11.82;;;11.82;;
71183;SDS011;58887;51.980;4.464;2023-09-08T01:26:41;11.56;;;11.56;;
71183;SDS011;58887;51.980;4.464;2023-09-08T01:29:07;11.62;;;11.62;;
71183;SDS011;58887;51.980;4.464;2023-09-08T01:31:35;11.71;;;11.71;;
71183;SDS011;58887;51.980;4.464;2023-09-08T01:34:03;11.74;;;11.74;;
71183;SDS011;58887;51.980;4.464;2023-09-08T01:36:32;11.74;;;11.74;;
71183;SDS011;58887;51.980;4.464;2023-09-08T01:38:59;11.64;;;11.64;;
71183;SDS011;58887;51.980;4.464;2023-09-08T01:41:25;11.90;;;11.90;;
71183;SDS011;58887;51.980;4.464;2023-09-08T01:43:50;11.47;;;11.47;;
71183;SDS011;58887;51.980;4.464;2023-09-08T01:46:16;11.70;;;11.70;;
71183;SDS011;58887;51.980;4.464;2023-09-08T01:48:41;11.99;;;11.99;;
71183;SDS011;58887;51.980;4.464;2023-09-08T01:51:06;12.15;;;12.15;;
71183;SDS011;58887;51.980;4.464;2023-09-08T01:53:32;11.76;;;11.76;;
71183;SDS011;58887;51.980;4.464;2023-09-08T01:55:57;11.73;;;11.73;;
71183;SDS011;58887;51.980;4.464;2023-09-08T01:58:23;11.48;;;11.48;;
71183;SDS011;58887;51.980;4.464;2023-09-08T02:00:50;11.52;;;11.52;;
71183;SDS011;58887;51.980;4.464;2023-09-08T02:03:16;11.66;;;11.66;;
71183;SDS011;58887;51.980;4.464;2023-09-08T02:05:42;11.31;;;11.31;;
71183;SDS011;58887;51.980;4.464;2023-09-08T02:08:07;11.39;;;11.39;;
71183;SDS011;58887;51.980;4.464;2023-09-08T02:10:33;11.72;;;11.72;;
71183;SDS011;58887;51.980;4.464;2023-09-08T02:12:58;12.43;;;12.43;;
71183;SDS011;58887;51.980;4.464;2023-09-08T02:15:24;11.53;;;11.53;;
71183;SDS011;58887;51.980;4.464;2023-09-08T02:17:52;11.80;;;11.80;;
71183;SDS011;58887;51.980;4.464;2023-09-08T02:20:20;11.45;;;11.45;;
71183;SDS011;58887;51.980;4.464;2023-09-08T02:22:45;12.43;;;12.43;;
71183;SDS011;58887;51.980;4.464;2023-09-08T02:25:13;12.26;;;12.26;;
71183;SDS011;58887;51.980;4.464;2023-09-08T02:27:39;13.30;;;13.30;;
71183;SDS011;58887;51.980;4.464;2023-09-08T02:30:04;12.98;;;12.98;;
71183;SDS011;58887;51.980;4.464;2023-09-08T02:32:30;13.13;;;13.13;;
71183;SDS011;58887;51.980;4.464;2023-09-08T02:34:56;13.13;;;13.13;;
71183;SDS011;58887;51.980;4.464;2023-09-08T02:37:21;12.75;;;12.75;;
71183;SDS011;58887;51.980;4.464;2023-09-08T02:39:46;13.20;;;13.20;;
71183;SDS011;58887;51.980;4.464;2023-09-08T02:42:12;13.76;;;13.76;;
71183;SDS011;58887;51.980;4.464;2023-09-08T02:44:37;13.58;;;13.58;;
71183;SDS011;58887;51.980;4.464;2023-09-08T02:47:03;13.55;;;13.55;;
71183;SDS011;58887;51.980;4.464;2023-09-08T02:49:28;13.69;;;13.69;;
71183;SDS011;58887;51.980;4.464;2023-09-08T02:51:54;13.17;;;13.17;;
71183;SDS011;58887;51.980;4.464;2023-09-08T02:54:19;13.28;;;13.28;;
71183;SDS011;58887;51.980;4.464;2023-09-08T02:56:44;13.49;;;13.49;;
71183;SDS011;58887;51.980;4.464;2023-09-08T02:59:10;13.31;;;13.31;;
71183;SDS011;58887;51.980;4.464;2023-09-08T03:01:35;13.39;;;13.39;;
71183;SDS011;58887;51.980;4.464;2023-09-08T03:04:01;13.31;;;13.31;;
71183;SDS011;58887;51.980;4.464;2023-09-08T03:06:26;13.95;;;13.95;;
71183;SDS011;58887;51.980;4.464;2023-09-08T03:08:51;13.05;;;13.05;;
71183;SDS011;58887;51.980;4.464;2023-09-08T03:11:17;12.62;;;12.62;;
71183;SDS011;58887;51.980;4.464;2023-09-08T03:13:42;12.41;;;12.41;;
71183;SDS011;58887;51.980;4.464;2023-09-08T03:16:08;12.91;;;12.91;;
71183;SDS011;58887;51.980;4.464;2023-09-08T03:18:34;12.94;;;12.94;;
71183;SDS011;58887;51.980;4.464;2023-09-08T03:21:02;12.85;;;12.85;;
71183;SDS011;58887;51.980;4.464;2023-09-08T03:23:36;12.57;;;12.57;;
71183;SDS011;58887;51.980;4.464;2023-09-08T03:26:02;12.33;;;12.33;;
71183;SDS011;58887;51.980;4.464;2023-09-08T03:28:28;12.04;;;12.04;;
71183;SDS011;58887;51.980;4.464;2023-09-08T03:30:53;11.79;;;11.79;;
71183;SDS011;58887;51.980;4.464;2023-09-08T03:33:19;12.85;;;12.84;;
71183;SDS011;58887;51.980;4.464;2023-09-08T03:35:44;12.54;;;12.54;;
71183;SDS011;58887;51.980;4.464;2023-09-08T03:38:10;12.42;;;12.42;;
71183;SDS011;58887;51.980;4.464;2023-09-08T03:40:39;12.56;;;12.56;;
71183;SDS011;58887;51.980;4.464;2023-09-08T03:43:06;12.35;;;12.35;;
71183;SDS011;58887;51.980;4.464;2023-09-08T03:45:32;12.69;;;12.69;;
71183;SDS011;58887;51.980;4.464;2023-09-08T03:47:58;12.71;;;12.71;;
71183;SDS011;58887;51.980;4.464;2023-09-08T03:50:23;13.20;;;13.20;;
71183;SDS011;58887;51.980;4.464;2023-09-08T03:52:49;12.79;;;12.79;;
71183;SDS011;58887;51.980;4.464;2023-09-08T03:55:16;12.68;;;12.68;;
71183;SDS011;58887;51.980;4.464;2023-09-08T03:57:48;12.82;;;12.82;;
71183;SDS011;58887;51.980;4.464;2023-09-08T04:02:53;12.22;;;12.22;;
71183;SDS011;58887;51.980;4.464;2023-09-08T04:05:21;11.94;;;11.94;;
71183;SDS011;58887;51.980;4.464;2023-09-08T04:07:47;12.30;;;12.30;;
71183;SDS011;58887;51.980;4.464;2023-09-08T04:10:12;12.17;;;12.17;;
71183;SDS011;58887;51.980;4.464;2023-09-08T04:12:47;11.39;;;11.39;;
71183;SDS011;58887;51.980;4.464;2023-09-08T04:15:14;11.13;;;11.13;;
71183;SDS011;58887;51.980;4.464;2023-09-08T04:17:39;11.60;;;11.60;;
71183;SDS011;58887;51.980;4.464;2023-09-08T04:20:05;11.54;;;11.54;;
71183;SDS011;58887;51.980;4.464;2023-09-08T04:22:46;11.73;;;11.73;;
71183;SDS011;58887;51.980;4.464;2023-09-08T04:25:12;12.02;;;12.02;;
71183;SDS011;58887;51.980;4.464;2023-09-08T04:27:40;12.32;;;12.32;;
71183;SDS011;58887;51.980;4.464;2023-09-08T04:30:06;12.50;;;12.50;;
71183;SDS011;58887;51.980;4.464;2023-09-08T04:32:32;12.89;;;12.89;;
71183;SDS011;58887;51.980;4.464;2023-09-08T04:34:57;12.12;;;12.12;;
71183;SDS011;58887;51.980;4.464;2023-09-08T04:39:53;11.55;;;11.55;;
71183;SDS011;58887;51.980;4.464;2023-09-08T04:42:21;12.13;;;12.13;;
71183;SDS011;58887;51.980;4.464;2023-09-08T04:44:48;12.06;;;12.06;;
71183;SDS011;58887;51.980;4.464;2023-09-08T04:47:14;11.89;;;11.89;;
71183;SDS011;58887;51.980;4.464;2023-09-08T04:52:09;11.91;;;11.91;;
71183;SDS011;58887;51.980;4.464;2023-09-08T04:54:37;12.11;;;12.11;;
71183;SDS011;58887;51.980;4.464;2023-09-08T04:57:03;11.94;;;11.94;;
71183;SDS011;58887;51.980;4.464;2023-09-08T04:59:29;11.81;;;11.81;;
71183;SDS011;58887;51.980;4.464;2023-09-08T05:02:05;11.19;;;11.19;;
71183;SDS011;58887;51.980;4.464;2023-09-08T05:04:30;11.05;;;11.05;;
71183;SDS011;58887;51.980;4.464;2023-09-08T05:06:56;11.53;;;11.53;;
71183;SDS011;58887;51.980;4.464;2023-09-08T05:09:21;11.07;;;11.07;;
71183;SDS011;58887;51.980;4.464;2023-09-08T05:14:47;10.77;;;10.77;;
71183;SDS011;58887;51.980;4.464;2023-09-08T05:17:27;10.92;;;10.92;;
71183;SDS011;58887;51.980;4.464;2023-09-08T05:22:40;11.07;;;11.07;;
71183;SDS011;58887;51.980;4.464;2023-09-08T05:25:05;11.08;;;11.08;;
71183;SDS011;58887;51.980;4.464;2023-09-08T05:27:47;11.15;;;11.15;;
71183;SDS011;58887;51.980;4.464;2023-09-08T05:32:49;11.23;;;11.23;;
71183;SDS011;58887;51.980;4.464;2023-09-08T05:35:17;11.07;;;11.07;;
71183;SDS011;58887;51.980;4.464;2023-09-08T05:37:45;10.40;;;10.40;;
71183;SDS011;58887;51.980;4.464;2023-09-08T05:40:22;10.88;;;10.88;;
71183;SDS011;58887;51.980;4.464;2023-09-08T05:42:49;11.52;;;11.52;;
71183;SDS011;58887;51.980;4.464;2023-09-08T05:45:27;10.96;;;10.96;;
71183;SDS011;58887;51.980;4.464;2023-09-08T05:47:55;10.99;;;10.99;;
71183;SDS011;58887;51.980;4.464;2023-09-08T05:56:24;12.48;;;12.48;;
71183;SDS011;58887;51.980;4.464;2023-09-08T05:58:54;12.38;;;12.38;;
71183;SDS011;58887;51.980;4.464;2023-09-08T06:01:20;12.31;;;12.31;;
71183;SDS011;58887;51.980;4.464;2023-09-08T06:06:21;11.72;;;11.72;;
71183;SDS011;58887;51.980;4.464;2023-09-08T06:08:48;12.20;;;12.20;;
71183;SDS011;58887;51.980;4.464;2023-09-08T06:11:18;12.43;;;12.43;;
71183;SDS011;58887;51.980;4.464;2023-09-08T06:13:44;12.78;;;12.78;;
71183;SDS011;58887;51.980;4.464;2023-09-08T06:16:10;12.07;;;12.07;;
71183;SDS011;58887;51.980;4.464;2023-09-08T06:18:43;12.58;;;12.58;;
71183;SDS011;58887;51.980;4.464;2023-09-08T06:21:09;12.48;;;12.48;;
71183;SDS011;58887;51.980;4.464;2023-09-08T06:23:35;12.57;;;12.57;;
71183;SDS011;58887;51.980;4.464;2023-09-08T06:26:01;12.32;;;12.32;;
71183;SDS011;58887;51.980;4.464;2023-09-08T06:28:27;12.41;;;12.41;;
71183;SDS011;58887;51.980;4.464;2023-09-08T06:30:53;12.51;;;12.51;;
71183;SDS011;58887;51.980;4.464;2023-09-08T06:33:19;11.72;;;11.72;;
71183;SDS011;58887;51.980;4.464;2023-09-08T06:35:45;12.14;;;12.14;;
71183;SDS011;58887;51.980;4.464;2023-09-08T06:38:12;12.29;;;12.29;;
71183;SDS011;58887;51.980;4.464;2023-09-08T06:40:37;12.66;;;12.66;;
71183;SDS011;58887;51.980;4.464;2023-09-08T06:43:03;12.96;;;12.96;;
71183;SDS011;58887;51.980;4.464;2023-09-08T06:45:28;12.99;;;12.99;;
71183;SDS011;58887;51.980;4.464;2023-09-08T06:47:54;13.12;;;13.12;;
71183;SDS011;58887;51.980;4.464;2023-09-08T06:50:23;12.43;;;12.43;;
71183;SDS011;58887;51.980;4.464;2023-09-08T06:52:49;12.75;;;12.75;;
71183;SDS011;58887;51.980;4.464;2023-09-08T06:55:15;12.08;;;12.08;;
71183;SDS011;58887;51.980;4.464;2023-09-08T06:57:42;12.96;;;12.96;;
71183;SDS011;58887;51.980;4.464;2023-09-08T07:00:08;12.27;;;12.27;;
71183;SDS011;58887;51.980;4.464;2023-09-08T07:02:33;12.92;;;12.92;;
71183;SDS011;58887;51.980;4.464;2023-09-08T07:04:59;12.43;;;12.43;;
71183;SDS011;58887;51.980;4.464;2023-09-08T07:07:25;12.08;;;12.08;;
71183;SDS011;58887;51.980;4.464;2023-09-08T07:09:51;12.16;;;12.16;;
71183;SDS011;58887;51.980;4.464;2023-09-08T07:12:16;11.61;;;11.61;;
71183;SDS011;58887;51.980;4.464;2023-09-08T07:14:42;11.95;;;11.95;;
71183;SDS011;58887;51.980;4.464;2023-09-08T07:17:07;12.29;;;12.29;;
71183;SDS011;58887;51.980;4.464;2023-09-08T07:19:33;12.10;;;12.10;;
71183;SDS011;58887;51.980;4.464;2023-09-08T07:21:58;12.04;;;12.04;;
71183;SDS011;58887;51.980;4.464;2023-09-08T07:24:23;11.57;;;11.57;;
71183;SDS011;58887;51.980;4.464;2023-09-08T07:26:49;12.13;;;12.13;;
71183;SDS011;58887;51.980;4.464;2023-09-08T07:29:15;12.58;;;12.58;;
71183;SDS011;58887;51.980;4.464;2023-09-08T07:31:42;11.65;;;11.65;;
71183;SDS011;58887;51.980;4.464;2023-09-08T07:34:08;12.15;;;12.15;;
71183;SDS011;58887;51.980;4.464;2023-09-08T07:36:34;11.03;;;11.03;;
71183;SDS011;58887;51.980;4.464;2023-09-08T07:39:00;11.07;;;11.07;;
71183;SDS011;58887;51.980;4.464;2023-09-08T07:41:26;11.27;;;11.27;;
71183;SDS011;58887;51.980;4.464;2023-09-08T07:43:51;11.32;;;11.32;;
71183;SDS011;58887;51.980;4.464;2023-09-08T07:46:17;10.98;;;10.98;;
71183;SDS011;58887;51.980;4.464;2023-09-08T07:48:42;11.36;;;11.36;;
71183;SDS011;58887;51.980;4.464;2023-09-08T07:51:07;11.05;;;11.05;;
71183;SDS011;58887;51.980;4.464;2023-09-08T07:53:33;11.22;;;11.22;;
71183;SDS011;58887;51.980;4.464;2023-09-08T07:55:58;10.63;;;10.63;;
71183;SDS011;58887;51.980;4.464;2023-09-08T07:58:24;10.38;;;10.38;;
71183;SDS011;58887;51.980;4.464;2023-09-08T08:00:49;10.47;;;10.47;;
71183;SDS011;58887;51.980;4.464;2023-09-08T08:03:15;10.34;;;10.34;;
71183;SDS011;58887;51.980;4.464;2023-09-08T08:05:40;10.07;;;10.07;;
71183;SDS011;58887;51.980;4.464;2023-09-08T08:08:06;10.51;;;10.51;;
71183;SDS011;58887;51.980;4.464;2023-09-08T08:10:32;9.83;;;9.83;;
71183;SDS011;58887;51.980;4.464;2023-09-08T08:12:58;10.17;;;10.17;;
71183;SDS011;58887;51.980;4.464;2023-09-08T08:15:34;10.52;;;10.52;;
71183;SDS011;58887;51.980;4.464;2023-09-08T08:18:01;10.02;;;10.02;;
71183;SDS011;58887;51.980;4.464;2023-09-08T08:20:27;9.90;;;9.90;;
71183;SDS011;58887;51.980;4.464;2023-09-08T08:22:52;9.96;;;9.96;;
71183;SDS011;58887;51.980;4.464;2023-09-08T08:25:17;9.31;;;9.31;;
71183;SDS011;58887;51.980;4.464;2023-09-08T08:27:43;9.34;;;9.34;;
71183;SDS011;58887;51.980;4.464;2023-09-08T08:30:09;9.20;;;9.20;;
71183;SDS011;58887;51.980;4.464;2023-09-08T08:32:36;8.51;;;8.51;;
71183;SDS011;58887;51.980;4.464;2023-09-08T08:35:02;8.21;;;8.21;;
71183;SDS011;58887;51.980;4.464;2023-09-08T08:37:29;8.57;;;8.57;;
71183;SDS011;58887;51.980;4.464;2023-09-08T08:39:55;8.53;;;8.53;;
71183;SDS011;58887;51.980;4.464;2023-09-08T08:42:20;8.41;;;8.41;;
71183;SDS011;58887;51.980;4.464;2023-09-08T08:44:47;8.33;;;8.33;;
71183;SDS011;58887;51.980;4.464;2023-09-08T08:47:15;8.32;;;8.32;;
71183;SDS011;58887;51.980;4.464;2023-09-08T08:49:43;7.89;;;7.89;;
71183;SDS011;58887;51.980;4.464;2023-09-08T08:52:12;7.70;;;7.70;;
71183;SDS011;58887;51.980;4.464;2023-09-08T08:54:40;7.60;;;7.60;;
71183;SDS011;58887;51.980;4.464;2023-09-08T08:57:08;8.35;;;8.35;;
71183;SDS011;58887;51.980;4.464;2023-09-08T08:59:34;7.37;;;7.37;;
71183;SDS011;58887;51.980;4.464;2023-09-08T09:02:02;7.29;;;7.29;;
71183;SDS011;58887;51.980;4.464;2023-09-08T09:04:30;8.19;;;8.19;;
71183;SDS011;58887;51.980;4.464;2023-09-08T09:06:56;8.01;;;8.01;;
71183;SDS011;58887;51.980;4.464;2023-09-08T09:09:22;7.88;;;7.88;;
71183;SDS011;58887;51.980;4.464;2023-09-08T09:11:49;8.17;;;8.17;;
71183;SDS011;58887;51.980;4.464;2023-09-08T09:14:15;7.81;;;7.81;;
71183;SDS011;58887;51.980;4.464;2023-09-08T09:16:42;7.80;;;7.80;;
71183;SDS011;58887;51.980;4.464;2023-09-08T09:19:09;7.39;;;7.39;;
71183;SDS011;58887;51.980;4.464;2023-09-08T09:21:43;7.24;;;7.24;;
71183;SDS011;58887;51.980;4.464;2023-09-08T09:24:16;7.31;;;7.31;;
71183;SDS011;58887;51.980;4.464;2023-09-08T09:26:52;7.65;;;7.65;;
71183;SDS011;58887;51.980;4.464;2023-09-08T09:29:18;7.29;;;7.29;;
71183;SDS011;58887;51.980;4.464;2023-09-08T09:31:54;6.89;;;6.89;;
71183;SDS011;58887;51.980;4.464;2023-09-08T09:34:27;7.21;;;7.21;;
71183;SDS011;58887;51.980;4.464;2023-09-08T09:36:53;7.07;;;7.07;;
71183;SDS011;58887;51.980;4.464;2023-09-08T09:39:19;7.78;;;7.78;;
71183;SDS011;58887;51.980;4.464;2023-09-08T09:41:46;7.12;;;7.12;;
71183;SDS011;58887;51.980;4.464;2023-09-08T09:44:13;6.59;;;6.59;;
71183;SDS011;58887;51.980;4.464;2023-09-08T09:46:42;7.00;;;7.00;;
71183;SDS011;58887;51.980;4.464;2023-09-08T09:49:16;6.82;;;6.82;;
71183;SDS011;58887;51.980;4.464;2023-09-08T09:51:49;6.54;;;6.54;;
71183;SDS011;58887;51.980;4.464;2023-09-08T09:54:18;6.25;;;6.25;;
71183;SDS011;58887;51.980;4.464;2023-09-08T09:56:44;5.82;;;5.82;;
71183;SDS011;58887;51.980;4.464;2023-09-08T09:59:12;5.86;;;5.86;;
71183;SDS011;58887;51.980;4.464;2023-09-08T10:01:39;5.95;;;5.95;;
71183;SDS011;58887;51.980;4.464;2023-09-08T10:04:07;6.48;;;6.48;;
71183;SDS011;58887;51.980;4.464;2023-09-08T10:06:34;6.84;;;6.84;;
71183;SDS011;58887;51.980;4.464;2023-09-08T10:09:01;6.18;;;6.18;;
71183;SDS011;58887;51.980;4.464;2023-09-08T10:11:39;5.10;;;5.10;;
71183;SDS011;58887;51.980;4.464;2023-09-08T10:14:09;5.03;;;5.03;;
71183;SDS011;58887;51.980;4.464;2023-09-08T10:16:38;5.17;;;5.17;;
71183;SDS011;58887;51.980;4.464;2023-09-08T10:19:09;4.92;;;4.92;;
71183;SDS011;58887;51.980;4.464;2023-09-08T10:21:39;5.25;;;5.25;;
71183;SDS011;58887;51.980;4.464;2023-09-08T10:24:14;5.04;;;5.04;;
71183;SDS011;58887;51.980;4.464;2023-09-08T10:26:44;5.48;;;5.48;;
71183;SDS011;58887;51.980;4.464;2023-09-08T10:29:16;4.79;;;4.79;;
71183;SDS011;58887;51.980;4.464;2023-09-08T10:31:44;4.32;;;4.32;;
71183;SDS011;58887;51.980;4.464;2023-09-08T10:34:10;3.65;;;3.65;;
71183;SDS011;58887;51.980;4.464;2023-09-08T10:36:37;4.46;;;4.46;;
71183;SDS011;58887;51.980;4.464;2023-09-08T10:44:47;4.39;;;4.39;;
71183;SDS011;58887;51.980;4.464;2023-09-08T10:47:25;4.43;;;4.43;;
71183;SDS011;58887;51.980;4.464;2023-09-08T10:49:51;4.62;;;4.62;;
71183;SDS011;58887;51.980;4.464;2023-09-08T10:52:22;4.54;;;4.54;;
71183;SDS011;58887;51.980;4.464;2023-09-08T10:54:50;4.69;;;4.69;;
71183;SDS011;58887;51.980;4.464;2023-09-08T10:57:17;4.83;;;4.83;;
71183;SDS011;58887;51.980;4.464;2023-09-08T10:59:54;4.95;;;4.95;;
71183;SDS011;58887;51.980;4.464;2023-09-08T11:05:03;5.37;;;5.37;;
71183;SDS011;58887;51.980;4.464;2023-09-08T11:07:37;5.48;;;5.48;;
71183;SDS011;58887;51.980;4.464;2023-09-08T11:10:03;6.05;;;6.05;;
71183;SDS011;58887;51.980;4.464;2023-09-08T11:12:30;5.82;;;5.82;;
71183;SDS011;58887;51.980;4.464;2023-09-08T11:14:57;5.52;;;5.52;;
71183;SDS011;58887;51.980;4.464;2023-09-08T11:17:26;5.33;;;5.33;;
71183;SDS011;58887;51.980;4.464;2023-09-08T11:19:53;5.10;;;5.10;;
71183;SDS011;58887;51.980;4.464;2023-09-08T11:22:21;5.43;;;5.43;;
71183;SDS011;58887;51.980;4.464;2023-09-08T11:24:49;5.49;;;5.49;;
71183;SDS011;58887;51.980;4.464;2023-09-08T11:27:17;4.59;;;4.59;;
71183;SDS011;58887;51.980;4.464;2023-09-08T11:29:43;4.36;;;4.36;;
71183;SDS011;58887;51.980;4.464;2023-09-08T11:32:09;4.99;;;4.99;;
71183;SDS011;58887;51.980;4.464;2023-09-08T11:34:35;4.49;;;4.49;;
71183;SDS011;58887;51.980;4.464;2023-09-08T11:37:10;4.46;;;4.46;;
71183;SDS011;58887;51.980;4.464;2023-09-08T11:39:41;3.78;;;3.78;;
71183;SDS011;58887;51.980;4.464;2023-09-08T11:42:08;2.94;;;2.94;;
71183;SDS011;58887;51.980;4.464;2023-09-08T11:44:36;3.38;;;3.38;;
71183;SDS011;58887;51.980;4.464;2023-09-08T11:47:02;3.17;;;3.17;;
71183;SDS011;58887;51.980;4.464;2023-09-08T11:49:40;3.03;;;3.03;;
71183;SDS011;58887;51.980;4.464;2023-09-08T11:52:06;3.20;;;3.20;;
71183;SDS011;58887;51.980;4.464;2023-09-08T11:54:32;3.16;;;3.16;;
71183;SDS011;58887;51.980;4.464;2023-09-08T11:57:00;2.79;;;2.79;;
71183;SDS011;58887;51.980;4.464;2023-09-08T11:59:28;3.15;;;3.15;;
71183;SDS011;58887;51.980;4.464;2023-09-08T12:01:57;2.94;;;2.94;;
71183;SDS011;58887;51.980;4.464;2023-09-08T12:04:23;3.32;;;3.32;;
71183;SDS011;58887;51.980;4.464;2023-09-08T12:06:50;2.98;;;2.98;;
71183;SDS011;58887;51.980;4.464;2023-09-08T12:09:17;3.08;;;3.08;;
71183;SDS011;58887;51.980;4.464;2023-09-08T12:11:43;3.01;;;3.01;;
71183;SDS011;58887;51.980;4.464;2023-09-08T12:14:12;3.10;;;3.10;;
71183;SDS011;58887;51.980;4.464;2023-09-08T12:16:39;3.20;;;3.20;;
71183;SDS011;58887;51.980;4.464;2023-09-08T12:19:06;3.16;;;3.16;;
71183;SDS011;58887;51.980;4.464;2023-09-08T12:21:34;3.29;;;3.29;;
71183;SDS011;58887;51.980;4.464;2023-09-08T12:24:18;3.25;;;3.25;;
71183;SDS011;58887;51.980;4.464;2023-09-08T12:26:43;3.29;;;3.29;;
71183;SDS011;58887;51.980;4.464;2023-09-08T12:29:12;3.07;;;3.07;;
71183;SDS011;58887;51.980;4.464;2023-09-08T12:31:38;3.01;;;3.01;;
71183;SDS011;58887;51.980;4.464;2023-09-08T12:34:03;2.84;;;2.84;;
71183;SDS011;58887;51.980;4.464;2023-09-08T12:36:29;2.96;;;2.96;;
71183;SDS011;58887;51.980;4.464;2023-09-08T12:38:54;3.24;;;3.24;;
71183;SDS011;58887;51.980;4.464;2023-09-08T12:41:20;3.23;;;3.23;;
71183;SDS011;58887;51.980;4.464;2023-09-08T12:43:47;3.25;;;3.25;;
71183;SDS011;58887;51.980;4.464;2023-09-08T12:46:12;3.57;;;3.57;;
71183;SDS011;58887;51.980;4.464;2023-09-08T12:48:38;3.10;;;3.10;;
71183;SDS011;58887;51.980;4.464;2023-09-08T12:51:03;2.93;;;2.93;;
71183;SDS011;58887;51.980;4.464;2023-09-08T12:53:35;3.13;;;3.13;;
71183;SDS011;58887;51.980;4.464;2023-09-08T12:56:00;3.08;;;3.08;;
71183;SDS011;58887;51.980;4.464;2023-09-08T12:58:26;3.15;;;3.15;;
71183;SDS011;58887;51.980;4.464;2023-09-08T13:00:52;3.21;;;3.21;;
71183;SDS011;58887;51.980;4.464;2023-09-08T13:03:18;3.01;;;3.01;;
71183;SDS011;58887;51.980;4.464;2023-09-08T13:05:43;3.37;;;3.37;;
71183;SDS011;58887;51.980;4.464;2023-09-08T13:08:09;3.24;;;3.24;;
71183;SDS011;58887;51.980;4.464;2023-09-08T13:10:34;3.25;;;3.25;;
71183;SDS011;58887;51.980;4.464;2023-09-08T13:12:59;3.23;;;3.23;;
71183;SDS011;58887;51.980;4.464;2023-09-08T13:15:25;3.33;;;3.33;;
71183;SDS011;58887;51.980;4.464;2023-09-08T13:17:50;3.06;;;3.06;;
71183;SDS011;58887;51.980;4.464;2023-09-08T13:20:16;2.87;;;2.87;;
71183;SDS011;58887;51.980;4.464;2023-09-08T13:22:42;3.14;;;3.14;;
71183;SDS011;58887;51.980;4.464;2023-09-08T13:25:07;3.13;;;3.13;;
71183;SDS011;58887;51.980;4.464;2023-09-08T13:27:33;3.12;;;3.12;;
71183;SDS011;58887;51.980;4.464;2023-09-08T13:30:11;3.27;;;3.27;;
71183;SDS011;58887;51.980;4.464;2023-09-08T13:32:38;3.42;;;3.42;;
71183;SDS011;58887;51.980;4.464;2023-09-08T13:35:05;3.31;;;3.31;;
71183;SDS011;58887;51.980;4.464;2023-09-08T13:37:31;3.06;;;3.06;;
71183;SDS011;58887;51.980;4.464;2023-09-08T13:39:59;3.03;;;3.03;;
71183;SDS011;58887;51.980;4.464;2023-09-08T13:42:25;2.96;;;2.96;;
71183;SDS011;58887;51.980;4.464;2023-09-08T13:44:50;3.00;;;3.00;;
71183;SDS011;58887;51.980;4.464;2023-09-08T13:47:16;2.98;;;2.98;;
71183;SDS011;58887;51.980;4.464;2023-09-08T13:49:41;2.85;;;2.85;;
71183;SDS011;58887;51.980;4.464;2023-09-08T13:52:07;2.82;;;2.82;;
71183;SDS011;58887;51.980;4.464;2023-09-08T13:54:32;2.90;;;2.90;;
71183;SDS011;58887;51.980;4.464;2023-09-08T13:57:02;2.89;;;2.89;;
71183;SDS011;58887;51.980;4.464;2023-09-08T13:59:29;2.96;;;2.96;;
71183;SDS011;58887;51.980;4.464;2023-09-08T14:01:55;2.84;;;2.84;;
71183;SDS011;58887;51.980;4.464;2023-09-08T14:04:23;2.67;;;2.67;;
71183;SDS011;58887;51.980;4.464;2023-09-08T14:06:49;2.74;;;2.74;;
71183;SDS011;58887;51.980;4.464;2023-09-08T14:09:14;2.76;;;2.76;;
71183;SDS011;58887;51.980;4.464;2023-09-08T14:11:40;2.48;;;2.48;;
71183;SDS011;58887;51.980;4.464;2023-09-08T14:14:06;2.34;;;2.34;;
71183;SDS011;58887;51.980;4.464;2023-09-08T14:16:31;2.68;;;2.68;;
71183;SDS011;58887;51.980;4.464;2023-09-08T14:18:57;2.82;;;2.82;;
71183;SDS011;58887;51.980;4.464;2023-09-08T14:21:22;2.46;;;2.46;;
71183;SDS011;58887;51.980;4.464;2023-09-08T14:23:48;2.65;;;2.65;;
71183;SDS011;58887;51.980;4.464;2023-09-08T14:26:13;2.54;;;2.54;;
71183;SDS011;58887;51.980;4.464;2023-09-08T14:28:38;2.78;;;2.78;;
71183;SDS011;58887;51.980;4.464;2023-09-08T14:31:04;2.53;;;2.53;;
71183;SDS011;58887;51.980;4.464;2023-09-08T14:33:30;2.56;;;2.56;;
71183;SDS011;58887;51.980;4.464;2023-09-08T14:35:55;2.89;;;2.89;;
71183;SDS011;58887;51.980;4.464;2023-09-08T14:38:22;2.64;;;2.64;;
71183;SDS011;58887;51.980;4.464;2023-09-08T14:41:01;2.51;;;2.51;;
71183;SDS011;58887;51.980;4.464;2023-09-08T14:43:27;2.68;;;2.68;;
71183;SDS011;58887;51.980;4.464;2023-09-08T14:45:54;2.85;;;2.85;;
71183;SDS011;58887;51.980;4.464;2023-09-08T14:48:22;2.75;;;2.75;;
71183;SDS011;58887;51.980;4.464;2023-09-08T14:50:48;2.82;;;2.82;;
71183;SDS011;58887;51.980;4.464;2023-09-08T14:53:13;2.75;;;2.75;;
71183;SDS011;58887;51.980;4.464;2023-09-08T14:55:39;3.07;;;3.07;;
71183;SDS011;58887;51.980;4.464;2023-09-08T14:58:05;2.85;;;2.85;;
71183;SDS011;58887;51.980;4.464;2023-09-08T15:00:31;2.79;;;2.79;;
71183;SDS011;58887;51.980;4.464;2023-09-08T15:02:57;2.72;;;2.72;;
71183;SDS011;58887;51.980;4.464;2023-09-08T15:05:22;2.80;;;2.80;;
71183;SDS011;58887;51.980;4.464;2023-09-08T15:07:48;2.70;;;2.70;;
71183;SDS011;58887;51.980;4.464;2023-09-08T15:10:13;2.72;;;2.72;;